createdAt,value
2022-12-25T00:01:51.506Z,8.98
2022-12-25T00:04:18.005Z,8.92
2022-12-25T00:06:44.442Z,8.95
2022-12-25T00:09:10.889Z,8.96
2022-12-25T00:11:37.850Z,8.96
2022-12-25T00:14:04.345Z,8.97
2022-12-25T00:16:30.941Z,8.96
2022-12-25T00:18:57.423Z,8.96
2022-12-25T00:21:23.821Z,8.95
2022-12-25T00:23:54.953Z,8.95
2022-12-25T00:26:21.473Z,8.95
2022-12-25T00:28:48.088Z,8.95
2022-12-25T00:31:17.591Z,8.92
2022-12-25T00:33:46.348Z,8.95
2022-12-25T00:36:15.240Z,8.92
2022-12-25T00:38:42.718Z,8.93
2022-12-25T00:41:12.047Z,8.87
2022-12-25T00:43:39.056Z,8.91
2022-12-25T00:46:07.149Z,8.91
2022-12-25T00:48:35.294Z,8.89
2022-12-25T00:51:07.294Z,8.91
2022-12-25T00:53:33.963Z,8.91
2022-12-25T00:56:02.940Z,8.90
2022-12-25T00:58:31.917Z,8.87
2022-12-25T01:00:58.523Z,8.92
2022-12-25T01:03:26.332Z,8.90
2022-12-25T01:05:58.551Z,8.91
2022-12-25T01:08:26.016Z,8.90
2022-12-25T01:11:00.904Z,8.90
2022-12-25T01:13:28.680Z,8.90
2022-12-25T01:15:55.413Z,8.89
2022-12-25T01:18:23.657Z,8.89
2022-12-25T01:20:50.651Z,8.88
2022-12-25T01:23:17.322Z,8.88
2022-12-25T01:25:43.753Z,8.87
2022-12-25T01:28:10.411Z,8.89
2022-12-25T01:30:36.880Z,8.90
2022-12-25T01:33:03.365Z,8.92
2022-12-25T01:35:29.844Z,8.92
2022-12-25T01:37:56.371Z,8.92
2022-12-25T01:40:22.799Z,8.92
2022-12-25T01:42:49.283Z,8.92
2022-12-25T01:45:40.412Z,8.92
2022-12-25T01:48:12.826Z,8.95
2022-12-25T01:50:43.623Z,8.95
2022-12-25T01:53:10.584Z,8.96
2022-12-25T01:55:38.297Z,8.90
2022-12-25T01:58:05.025Z,8.95
2022-12-25T02:00:31.635Z,8.95
2022-12-25T02:02:58.873Z,8.98
2022-12-25T02:05:31.872Z,8.91
2022-12-25T02:08:08.519Z,8.95
2022-12-25T02:10:35.003Z,8.94
2022-12-25T02:13:02.308Z,8.92
2022-12-25T02:15:46.104Z,8.85
2022-12-25T02:18:58.996Z,8.88
2022-12-25T02:21:52.011Z,8.84
2022-12-25T02:24:54.011Z,8.82
2022-12-25T02:27:39.146Z,8.81
2022-12-25T02:30:10.320Z,8.77
2022-12-25T02:32:58.344Z,8.68
2022-12-25T02:35:29.921Z,8.69
2022-12-25T02:37:59.384Z,8.67
2022-12-25T02:40:36.480Z,8.62
2022-12-25T02:43:08.159Z,8.60
2022-12-25T02:45:43.678Z,8.57
2022-12-25T02:48:12.258Z,8.49
2022-12-25T02:50:38.890Z,8.49
2022-12-25T02:53:07.117Z,8.48
2022-12-25T02:55:38.562Z,8.45
2022-12-25T02:58:13.177Z,8.41
2022-12-25T03:00:46.155Z,8.41
2022-12-25T03:03:16.015Z,8.32
2022-12-25T03:05:45.203Z,8.35
2022-12-25T03:08:16.689Z,8.36
2022-12-25T03:10:49.301Z,8.35
2022-12-25T03:13:20.347Z,8.31
2022-12-25T03:15:48.616Z,8.35
2022-12-25T03:18:19.450Z,8.34
2022-12-25T03:20:45.998Z,8.36
2022-12-25T03:23:13.829Z,8.37
2022-12-25T03:25:40.408Z,8.38
2022-12-25T03:28:07.005Z,8.39
2022-12-25T03:30:40.726Z,8.34
2022-12-25T03:33:43.908Z,8.39
2022-12-25T03:36:36.350Z,8.42
2022-12-25T03:39:13.042Z,8.42
2022-12-25T03:41:48.941Z,8.46
2022-12-25T03:44:45.699Z,8.47
2022-12-25T03:47:29.395Z,8.58
2022-12-25T03:50:07.551Z,8.61
2022-12-25T03:52:36.233Z,8.65
2022-12-25T03:55:08.729Z,8.69
2022-12-25T03:57:35.735Z,8.76
2022-12-25T04:00:02.165Z,8.80
2022-12-25T04:02:36.753Z,8.84
2022-12-25T04:05:03.822Z,8.88
2022-12-25T04:07:30.266Z,8.92
2022-12-25T04:09:56.749Z,8.94
2022-12-25T04:12:23.194Z,8.98
2022-12-25T04:14:49.630Z,9.01
2022-12-25T04:17:16.066Z,9.04
2022-12-25T04:19:42.491Z,9.06
2022-12-25T04:22:08.940Z,9.05
2022-12-25T04:24:35.394Z,9.04
2022-12-25T04:27:02.066Z,9.04
2022-12-25T04:29:28.509Z,9.03
2022-12-25T04:31:54.980Z,8.99
2022-12-25T04:34:21.401Z,8.97
2022-12-25T04:36:47.915Z,8.95
2022-12-25T04:39:14.356Z,8.91
2022-12-25T04:41:40.863Z,8.89
2022-12-25T04:44:08.742Z,8.87
2022-12-25T04:46:35.620Z,8.85
2022-12-25T04:49:02.113Z,8.82
2022-12-25T04:51:28.715Z,8.80
2022-12-25T04:53:55.845Z,8.78
2022-12-25T04:56:22.859Z,8.76
2022-12-25T04:58:49.462Z,8.75
2022-12-25T05:01:16.473Z,8.74
2022-12-25T05:03:43.262Z,8.75
2022-12-25T05:06:10.492Z,8.73
2022-12-25T05:08:37.283Z,8.75
2022-12-25T05:11:11.868Z,8.70
2022-12-25T05:13:39.038Z,8.72
2022-12-25T05:16:12.807Z,8.69
2022-12-25T05:18:39.342Z,8.73
2022-12-25T05:21:06.462Z,8.73
2022-12-25T05:23:34.133Z,8.68
2022-12-25T05:26:04.925Z,8.71
2022-12-25T05:28:31.449Z,8.73
2022-12-25T05:30:57.942Z,8.72
2022-12-25T05:33:24.437Z,8.71
2022-12-25T05:35:50.884Z,8.71
2022-12-25T05:38:17.361Z,8.72
2022-12-25T05:40:43.879Z,8.71
2022-12-25T05:43:10.355Z,8.72
2022-12-25T05:45:37.206Z,8.71
2022-12-25T05:48:03.810Z,8.67
2022-12-25T05:50:30.320Z,8.71
2022-12-25T05:53:09.163Z,8.70
2022-12-25T05:55:37.264Z,8.72
2022-12-25T05:58:04.699Z,8.70
2022-12-25T06:00:31.539Z,8.72
2022-12-25T06:02:58.564Z,8.69
2022-12-25T06:05:25.803Z,8.74
2022-12-25T06:07:52.357Z,8.75
2022-12-25T06:10:18.917Z,8.77
2022-12-25T06:12:45.408Z,8.79
2022-12-25T06:15:12.002Z,8.80
2022-12-25T06:17:38.500Z,8.80
2022-12-25T06:20:06.014Z,8.84
2022-12-25T06:22:33.765Z,8.86
2022-12-25T06:25:00.550Z,8.89
2022-12-25T06:27:27.244Z,8.90
2022-12-25T06:29:53.973Z,8.93
2022-12-25T06:32:20.592Z,8.97
2022-12-25T06:34:47.009Z,9.00
2022-12-25T06:37:13.468Z,9.01
2022-12-25T06:39:39.904Z,9.03
2022-12-25T06:42:06.338Z,9.04
2022-12-25T06:44:32.847Z,9.05
2022-12-25T06:46:59.359Z,9.05
2022-12-25T06:49:25.876Z,9.04
2022-12-25T06:51:52.293Z,9.00
2022-12-25T06:54:18.739Z,9.03
2022-12-25T06:56:45.124Z,9.02
2022-12-25T06:59:11.614Z,9.04
2022-12-25T07:01:47.960Z,8.98
2022-12-25T07:04:22.380Z,9.01
2022-12-25T07:06:48.873Z,8.99
2022-12-25T07:09:15.380Z,8.99
2022-12-25T07:11:41.843Z,8.99
2022-12-25T07:14:17.431Z,8.98
2022-12-25T07:16:49.199Z,8.96
2022-12-25T07:19:16.490Z,8.97
2022-12-25T07:21:42.989Z,8.99
2022-12-25T07:24:09.433Z,8.98
2022-12-25T07:26:35.877Z,8.99
2022-12-25T07:29:02.421Z,9.01
2022-12-25T07:31:28.941Z,9.00
2022-12-25T07:33:55.426Z,9.02
2022-12-25T07:36:21.978Z,8.99
2022-12-25T07:38:49.569Z,9.03
2022-12-25T07:41:16.390Z,9.03
2022-12-25T07:43:42.955Z,9.00
2022-12-25T07:46:10.202Z,9.04
2022-12-25T07:48:36.858Z,9.05
2022-12-25T07:51:06.655Z,8.98
2022-12-25T07:53:34.782Z,9.04
2022-12-25T07:56:04.689Z,9.05
2022-12-25T07:58:32.050Z,9.06
2022-12-25T08:01:12.744Z,9.03
2022-12-25T08:03:39.688Z,9.05
2022-12-25T08:06:09.101Z,8.98
2022-12-25T08:08:36.886Z,9.02
2022-12-25T08:11:04.161Z,9.01
2022-12-25T08:13:32.147Z,9.00
2022-12-25T08:16:00.586Z,8.97
2022-12-25T08:18:30.332Z,9.00
2022-12-25T08:21:01.567Z,9.01
2022-12-25T08:23:28.018Z,9.01
2022-12-25T08:26:04.591Z,9.02
2022-12-25T08:28:33.990Z,9.02
2022-12-25T08:31:19.844Z,8.98
2022-12-25T08:33:47.371Z,9.02
2022-12-25T08:36:13.971Z,9.03
2022-12-25T08:38:40.953Z,9.03
2022-12-25T08:41:07.506Z,9.04
2022-12-25T08:43:34.063Z,9.03
2022-12-25T08:46:00.956Z,9.02
2022-12-25T08:48:27.840Z,9.01
2022-12-25T08:50:54.483Z,9.01
2022-12-25T08:53:21.725Z,9.01
2022-12-25T08:55:48.440Z,9.01
2022-12-25T08:58:15.465Z,9.02
2022-12-25T09:00:42.101Z,9.02
2022-12-25T09:03:08.574Z,9.04
2022-12-25T09:05:36.077Z,9.05
2022-12-25T09:08:02.574Z,9.06
2022-12-25T09:10:29.301Z,9.06
2022-12-25T09:12:55.765Z,9.07
2022-12-25T09:15:22.253Z,9.09
2022-12-25T09:17:48.732Z,9.12
2022-12-25T09:20:15.247Z,9.13
2022-12-25T09:22:41.665Z,9.16
2022-12-25T09:25:08.604Z,9.19
2022-12-25T09:27:35.066Z,9.22
2022-12-25T09:30:01.650Z,9.24
2022-12-25T09:32:28.056Z,9.32
2022-12-25T09:34:54.524Z,9.35
2022-12-25T09:37:21.027Z,9.40
2022-12-25T09:39:47.512Z,9.45
2022-12-25T09:42:22.918Z,9.43
2022-12-25T09:45:00.272Z,9.53
2022-12-25T09:47:33.882Z,9.52
2022-12-25T09:50:19.282Z,9.61
2022-12-25T09:53:03.439Z,9.65
2022-12-25T09:55:33.552Z,9.65
2022-12-25T09:58:05.604Z,9.70
2022-12-25T10:00:38.024Z,9.77
2022-12-25T10:03:36.923Z,9.81
2022-12-25T10:06:41.939Z,9.84
2022-12-25T10:09:08.317Z,9.89
2022-12-25T10:12:08.947Z,9.90
2022-12-25T10:14:38.205Z,9.99
2022-12-25T10:17:14.467Z,10.04
2022-12-25T10:19:54.347Z,10.03
2022-12-25T10:22:31.555Z,10.15
2022-12-25T10:25:00.557Z,10.20
2022-12-25T10:27:34.829Z,10.19
2022-12-25T10:30:02.299Z,10.27
2022-12-25T10:32:28.846Z,10.31
2022-12-25T10:34:55.361Z,10.36
2022-12-25T10:37:21.936Z,10.41
2022-12-25T10:39:48.410Z,10.43
2022-12-25T10:42:30.910Z,10.43
2022-12-25T10:45:00.225Z,10.43
2022-12-25T10:47:32.918Z,10.38
2022-12-25T10:50:07.869Z,10.44
2022-12-25T10:52:34.984Z,10.50
2022-12-25T10:55:12.195Z,10.45
2022-12-25T10:57:46.024Z,10.45
2022-12-25T11:00:24.556Z,10.47
2022-12-25T11:02:51.625Z,10.48
2022-12-25T11:05:38.795Z,10.47
2022-12-25T11:08:20.012Z,10.45
2022-12-25T11:10:53.381Z,10.49
2022-12-25T11:13:30.417Z,10.49
2022-12-25T11:16:14.747Z,10.52
2022-12-25T11:18:50.741Z,10.49
2022-12-25T11:21:25.136Z,10.58
2022-12-25T11:24:02.345Z,10.59
2022-12-25T11:26:46.702Z,10.62
2022-12-25T11:29:22.937Z,10.65
2022-12-25T11:31:51.149Z,10.68
2022-12-25T11:34:33.420Z,10.66
2022-12-25T11:37:02.490Z,10.73
2022-12-25T11:39:32.656Z,10.73
2022-12-25T11:42:11.851Z,10.81
2022-12-25T11:44:46.932Z,10.84
2022-12-25T11:47:26.498Z,10.88
2022-12-25T11:50:00.956Z,10.87
2022-12-25T11:52:34.044Z,10.93
2022-12-25T11:55:21.670Z,10.95
2022-12-25T11:57:55.086Z,10.99
2022-12-25T12:00:21.806Z,11.05
2022-12-25T12:02:51.353Z,11.08
2022-12-25T12:05:23.911Z,11.09
2022-12-25T12:07:57.716Z,11.11
2022-12-25T12:10:32.973Z,11.20
2022-12-25T12:13:44.714Z,11.23
2022-12-25T12:16:11.564Z,11.31
2022-12-25T12:18:38.161Z,11.37
2022-12-25T12:21:08.186Z,11.32
2022-12-25T12:23:48.055Z,11.35
2022-12-25T12:26:25.985Z,11.33
2022-12-25T12:28:56.270Z,11.38
2022-12-25T12:31:23.627Z,11.37
2022-12-25T12:33:57.823Z,11.37
2022-12-25T12:36:35.612Z,11.32
2022-12-25T12:39:04.534Z,11.35
2022-12-25T12:41:46.091Z,11.35
2022-12-25T12:44:14.344Z,11.39
2022-12-25T12:46:55.011Z,11.39
2022-12-25T12:49:27.353Z,11.41
2022-12-25T12:52:23.738Z,11.46
2022-12-25T12:55:01.686Z,11.53
2022-12-25T12:57:30.694Z,11.50
2022-12-25T13:00:02.028Z,11.58
2022-12-25T13:02:43.537Z,11.59
2022-12-25T13:05:34.730Z,11.56
2022-12-25T13:08:01.550Z,11.65
2022-12-25T13:10:32.246Z,11.64
2022-12-25T13:13:06.802Z,11.58
2022-12-25T13:15:35.031Z,11.56
2022-12-25T13:18:05.411Z,11.54
2022-12-25T13:20:53.804Z,11.53
2022-12-25T13:23:24.741Z,11.56
2022-12-25T13:25:53.050Z,11.50
2022-12-25T13:28:25.551Z,11.51
2022-12-25T13:30:52.194Z,11.50
2022-12-25T13:33:19.453Z,11.48
2022-12-25T13:35:47.146Z,11.43
2022-12-25T13:38:17.816Z,11.46
2022-12-25T13:40:52.525Z,11.44
2022-12-25T13:43:19.326Z,11.44
2022-12-25T13:45:54.540Z,11.42
2022-12-25T13:48:21.361Z,11.41
2022-12-25T13:50:57.633Z,11.35
2022-12-25T13:53:24.087Z,11.37
2022-12-25T13:55:52.557Z,11.36
2022-12-25T13:58:28.745Z,11.31
2022-12-25T14:00:57.659Z,11.33
2022-12-25T14:03:39.969Z,11.31
2022-12-25T14:06:18.466Z,11.24
2022-12-25T14:08:45.656Z,11.28
2022-12-25T14:11:15.829Z,11.21
2022-12-25T14:13:44.733Z,11.22
2022-12-25T14:16:15.289Z,11.20
2022-12-25T14:18:54.491Z,11.15
2022-12-25T14:21:37.199Z,11.14
2022-12-25T14:24:04.217Z,11.15
2022-12-25T14:26:33.264Z,11.13
2022-12-25T14:29:05.772Z,11.13
2022-12-25T14:31:33.044Z,11.13
2022-12-25T14:34:01.952Z,11.10
2022-12-25T14:36:30.755Z,11.12
2022-12-25T14:39:02.555Z,11.06
2022-12-25T14:41:37.201Z,11.08
2022-12-25T14:44:06.697Z,11.00
2022-12-25T14:46:34.397Z,11.08
2022-12-25T14:49:23.499Z,11.02
2022-12-25T14:51:50.754Z,11.10
2022-12-25T14:54:22.749Z,11.10
2022-12-25T14:56:51.771Z,11.07
2022-12-25T14:59:25.031Z,11.08
2022-12-25T15:01:58.953Z,11.12
2022-12-25T15:04:26.888Z,11.12
2022-12-25T15:06:58.967Z,11.09
2022-12-25T15:09:26.501Z,11.09
2022-12-25T15:11:55.210Z,11.00
2022-12-25T15:14:26.195Z,10.99
2022-12-25T15:16:56.428Z,10.96
2022-12-25T15:19:36.628Z,10.90
2022-12-25T15:22:03.935Z,10.89
2022-12-25T15:24:30.398Z,10.86
2022-12-25T15:26:56.896Z,10.81
2022-12-25T15:29:44.764Z,10.80
2022-12-25T15:32:22.288Z,10.75
2022-12-25T15:34:49.274Z,10.72
2022-12-25T15:37:17.381Z,10.69
2022-12-25T15:39:43.875Z,10.66
2022-12-25T15:42:21.328Z,10.63
2022-12-25T15:44:48.050Z,10.63
2022-12-25T15:47:17.458Z,10.57
2022-12-25T15:49:43.926Z,10.57
2022-12-25T15:52:14.269Z,10.51
2022-12-25T15:54:40.887Z,10.54
2022-12-25T15:57:22.017Z,10.52
2022-12-25T15:59:48.502Z,10.48
2022-12-25T16:02:20.503Z,10.42
2022-12-25T16:04:47.496Z,10.46
2022-12-25T16:07:19.570Z,10.41
2022-12-25T16:09:46.626Z,10.41
2022-12-25T16:12:13.087Z,10.36
2022-12-25T16:14:39.563Z,10.34
2022-12-25T16:17:06.025Z,10.33
2022-12-25T16:19:32.608Z,10.32
2022-12-25T16:21:59.385Z,10.28
2022-12-25T16:24:25.902Z,10.28
2022-12-25T16:26:52.358Z,10.27
2022-12-25T16:29:18.972Z,10.26
2022-12-25T16:31:45.526Z,10.25
2022-12-25T16:34:12.067Z,10.24
2022-12-25T16:36:38.565Z,10.24
2022-12-25T16:39:05.332Z,10.23
2022-12-25T16:41:32.127Z,10.23
2022-12-25T16:43:58.810Z,10.20
2022-12-25T16:46:25.343Z,10.23
2022-12-25T16:48:51.841Z,10.22
2022-12-25T16:51:20.779Z,10.19
2022-12-25T16:53:47.520Z,10.20
2022-12-25T16:56:16.537Z,10.18
2022-12-25T16:58:45.222Z,10.15
2022-12-25T17:01:14.504Z,10.19
2022-12-25T17:03:41.499Z,10.18
2022-12-25T17:06:15.056Z,10.16
2022-12-25T17:08:42.340Z,10.17
2022-12-25T17:11:09.249Z,10.15
2022-12-25T17:13:36.133Z,10.14
2022-12-25T17:16:16.746Z,10.11
2022-12-25T17:18:43.407Z,10.12
2022-12-25T17:21:10.174Z,10.12
2022-12-25T17:23:38.052Z,10.11
2022-12-25T17:26:05.314Z,10.09
2022-12-25T17:28:33.740Z,10.08
2022-12-25T17:31:08.581Z,10.05
2022-12-25T17:33:36.425Z,10.05
2022-12-25T17:36:04.422Z,10.01
2022-12-25T17:38:32.183Z,9.96
2022-12-25T17:41:00.243Z,9.89
2022-12-25T17:43:26.879Z,9.86
2022-12-25T17:45:53.569Z,9.83
2022-12-25T17:48:20.212Z,9.77
2022-12-25T17:50:47.194Z,9.75
2022-12-25T17:53:14.049Z,9.69
2022-12-25T17:55:40.799Z,9.65
2022-12-25T17:58:10.289Z,9.58
2022-12-25T18:00:37.405Z,9.56
2022-12-25T18:03:10.845Z,9.52
2022-12-25T18:05:38.252Z,9.48
2022-12-25T18:08:04.829Z,9.44
2022-12-25T18:10:39.256Z,9.36
2022-12-25T18:13:05.838Z,9.37
2022-12-25T18:15:35.694Z,9.35
2022-12-25T18:18:02.294Z,9.30
2022-12-25T18:20:31.806Z,9.28
2022-12-25T18:23:01.348Z,9.25
2022-12-25T18:25:27.828Z,9.22
2022-12-25T18:27:54.325Z,9.21
2022-12-25T18:30:20.844Z,9.18
2022-12-25T18:32:47.357Z,9.16
2022-12-25T18:35:13.814Z,9.14
2022-12-25T18:37:40.512Z,9.13
2022-12-25T18:40:07.706Z,9.13
2022-12-25T18:42:34.209Z,9.12
2022-12-25T18:45:00.639Z,9.12
2022-12-25T18:47:27.114Z,9.10
2022-12-25T18:49:53.536Z,9.13
2022-12-25T18:52:47.359Z,9.13
2022-12-25T18:55:07.024Z,9.15
2022-12-25T18:57:33.572Z,9.16
2022-12-25T19:00:01.809Z,9.16
2022-12-25T19:02:28.959Z,9.18
2022-12-25T19:04:55.939Z,9.20
2022-12-25T19:07:23.160Z,9.22
2022-12-25T19:09:50.276Z,9.24
2022-12-25T19:12:16.901Z,9.26
2022-12-25T19:14:48.046Z,9.27
2022-12-25T19:17:14.845Z,9.26
2022-12-25T19:19:41.283Z,9.31
2022-12-25T19:22:08.014Z,9.33
2022-12-25T19:24:35.604Z,9.32
2022-12-25T19:27:02.281Z,9.34
2022-12-25T19:29:28.778Z,9.34
2022-12-25T19:31:55.701Z,9.34
2022-12-25T19:34:22.333Z,9.35
2022-12-25T19:36:49.775Z,9.35
2022-12-25T19:39:16.240Z,9.34
2022-12-25T19:41:42.714Z,9.35
2022-12-25T19:44:09.173Z,9.34
2022-12-25T19:46:38.092Z,9.33
2022-12-25T19:49:05.022Z,9.34
2022-12-25T19:51:37.227Z,9.34
2022-12-25T19:54:05.287Z,9.33
2022-12-25T19:56:32.866Z,9.33
2022-12-25T19:58:59.926Z,9.33
2022-12-25T20:01:28.754Z,9.33
2022-12-25T20:03:56.316Z,9.31
2022-12-25T20:06:41.017Z,9.29
2022-12-25T20:09:11.205Z,9.26
2022-12-25T20:11:37.862Z,9.30
2022-12-25T20:14:05.803Z,9.22
2022-12-25T20:16:32.587Z,9.29
2022-12-25T20:18:59.225Z,9.29
2022-12-25T20:21:25.852Z,9.27
2022-12-25T20:23:53.323Z,9.29
2022-12-25T20:26:23.433Z,9.22
2022-12-25T20:28:50.305Z,9.27
2022-12-25T20:31:24.284Z,9.26
2022-12-25T20:33:50.769Z,9.25
2022-12-25T20:36:17.556Z,9.22
2022-12-25T20:38:44.422Z,9.22
2022-12-25T20:41:26.922Z,9.20
2022-12-25T20:43:55.188Z,9.19
2022-12-25T20:46:22.398Z,9.18
2022-12-25T20:48:49.127Z,9.16
2022-12-25T20:51:18.492Z,9.11
2022-12-25T20:53:45.128Z,9.16
2022-12-25T20:56:13.505Z,9.16
2022-12-25T20:58:40.297Z,9.17
2022-12-25T21:01:14.679Z,9.14
2022-12-25T21:03:41.677Z,9.18
2022-12-25T21:06:09.316Z,9.22
2022-12-25T21:08:36.486Z,9.24
2022-12-25T21:11:03.947Z,9.25
2022-12-25T21:13:36.659Z,9.22
2022-12-25T21:16:09.870Z,9.25
2022-12-25T21:18:36.428Z,9.29
2022-12-25T21:21:03.989Z,9.29
2022-12-25T21:23:32.584Z,9.29
2022-12-25T21:25:59.029Z,9.31
2022-12-25T21:28:26.894Z,9.30
2022-12-25T21:30:53.400Z,9.31
2022-12-25T21:33:19.951Z,9.33
2022-12-25T21:35:46.601Z,9.33
2022-12-25T21:38:13.086Z,9.33
2022-12-25T21:40:39.631Z,9.33
2022-12-25T21:43:06.861Z,9.29
2022-12-25T21:45:34.456Z,9.29
2022-12-25T21:48:03.672Z,9.23
2022-12-25T21:50:34.622Z,9.23
2022-12-25T21:53:04.981Z,9.23
2022-12-25T21:55:32.746Z,9.20
2022-12-25T21:57:59.233Z,9.18
2022-12-25T22:00:25.697Z,9.16
2022-12-25T22:02:52.260Z,9.12
2022-12-25T22:05:18.933Z,9.07
2022-12-25T22:07:45.398Z,9.02
2022-12-25T22:10:11.795Z,8.99
2022-12-25T22:12:38.259Z,8.96
2022-12-25T22:15:07.192Z,8.93
2022-12-25T22:17:35.285Z,8.90
2022-12-25T22:20:02.031Z,8.88
2022-12-25T22:22:29.674Z,8.88
2022-12-25T22:24:58.720Z,8.81
2022-12-25T22:27:25.691Z,8.88
2022-12-25T22:29:52.314Z,8.91
2022-12-25T22:32:18.812Z,8.92
2022-12-25T22:34:45.226Z,8.94
2022-12-25T22:37:15.345Z,8.92
2022-12-25T22:39:41.837Z,8.93
2022-12-25T22:42:08.645Z,8.90
2022-12-25T22:44:35.346Z,8.90
2022-12-25T22:47:01.915Z,8.87
2022-12-25T22:49:29.529Z,8.86
2022-12-25T22:51:56.500Z,8.83
2022-12-25T22:54:24.242Z,8.81
2022-12-25T22:56:52.615Z,8.74
2022-12-25T22:59:22.080Z,8.75
2022-12-25T23:01:49.820Z,8.75
2022-12-25T23:04:17.150Z,8.75
2022-12-25T23:06:43.630Z,8.71
2022-12-25T23:09:16.351Z,8.65
2022-12-25T23:11:46.985Z,8.70
2022-12-25T23:14:13.911Z,8.71
2022-12-25T23:16:40.629Z,8.71
2022-12-25T23:19:08.052Z,8.69
2022-12-25T23:21:35.201Z,8.69
2022-12-25T23:24:02.193Z,8.68
2022-12-25T23:26:28.705Z,8.66
2022-12-25T23:28:55.729Z,8.67
2022-12-25T23:31:25.378Z,8.68
2022-12-25T23:33:51.903Z,8.68
2022-12-25T23:36:18.362Z,8.65
2022-12-25T23:38:44.835Z,8.69
2022-12-25T23:41:11.321Z,8.70
2022-12-25T23:43:37.828Z,8.67
2022-12-25T23:46:04.356Z,8.69
2022-12-25T23:48:30.875Z,8.70
2022-12-25T23:51:02.020Z,8.70
2022-12-25T23:53:28.464Z,8.70
2022-12-25T23:55:55.967Z,8.70
2022-12-25T23:58:22.759Z,8.68
